THE 13TH ANNUAL ARR DESERT CLASSIC MARATHON
RIVERBOAT VILLAGE IN SURPRISE, ARIZONA
FEBRUARY 2, 2007

If you find an error, please send e-mail to Race Timer with your correction.

OVERALL FULL
MARATHON RESULTS
OVERALL HALF
MARATHON RESULTS
OVERALL TWO MILE
RUN RESULTS
OVERALL RELAY
RESULTS

FULL MARATHON RUN OVERALL ORDER OF FINISH

Place No.  Name                        Age Div/Tot  S Chip    Pace  Gun     Split   Hometown                  
    1  752 Gregg Walchli                44   1/5    M 3:04:55  7:04 3:04:58 1:27:56 Seattle Wa
    2 5570 Paul Movroydis               47   1/5    M 3:18:23  7:34 3:19:40 1:34:06 Wellborn Tx
    3  694 Ramiro Munoz                 48   2/5    M 3:20:42  7:40 3:20:46 1:39:55 Elmhurst Ny
    4  756 Amy Yanni                    52   1/4    F 3:25:20  7:50 3:25:25 1:42:28 Rapid City Sd
    5  649 Elias J Gorman               43   2/5    M 3:25:38  7:51 3:25:45 1:40:07 Fairview Park Oh
    6  746 Brian Tinder                 27   1/3    M 3:29:17  7:59 3:29:27 1:38:48 Goodyear Az
    7  728 Janet Elizabeth Shaw         44   1/3    F 3:31:53  8:05 3:32:00 1:40:09 Scottsdale Az
    8  638 Cliff F Franklin II          30   1/4    M 3:32:28  8:07 3:32:38 1:36:56 Milan Mi
    9  697 Jerry Nairn                  47   3/5    M 3:41:02  8:26 3:41:11 1:41:31 Chandler Az
   10  851 Gregory Brown                43   3/5    M 3:42:26  8:29 3:42:30 1:48:41 Tempe Az
   11  613 David Bluestein              50   1/6    M 3:45:26  8:36 3:45:35 1:47:20 Chandler Az
   12  629 Jeremy D Clipperton          29   2/3    M 3:52:39  8:53 3:52:55 1:55:10 El Mirage Az
   13  692 Robert J. Miller             45   4/5    M 3:53:41  8:55 3:53:52 1:50:22 Pahrump Nv
   14  719 Mike Rosner                  61   1/2    M 3:55:07  8:59 3:55:13 1:48:51 Ogden Ut
   15  601 Don Allen                    43   4/5    M 3:58:16  9:06 3:58:36 1:56:47 Thomson Ga
   16  633 Darren E Elledge             37   1/2    M 3:59:29  9:09 3:59:35 1:50:40 Chicago Il
   17  654 Mark Haley                   36   2/2    M 3:59:52  9:09 4:00:05 1:51:58 La Grange Ky
   18  687 Kirstin Hendrickson Magee    29   1/1    F 4:02:58  9:16 4:03:21 1:56:44 Mesa Az
   19  718 Claudia Roedl                43   2/3    F 4:03:39  9:18 4:03:39 2:00:34 Scottsdale Az
   20  632 Gareth Edmondson             30   2/4    M 4:04:25  9:20 4:04:31 2:00:16 Phoenix Az
   21  729 Dan Shuff                    71   1/2    M 4:05:05  9:21 4:05:16 1:55:22 San Antonio Tx
   22  741 Juan Carlos Terrazas         26   3/3    M 4:07:39  9:27 4:08:02 2:09:49 Glendale Az
   23  703 Jon O'neil                   52   2/6    M 4:09:29  9:31 4:09:44 1:53:23 New Albany In
   24  616 Robert Boluyt                24   1/1    M 4:13:39  9:41 4:13:47 1:50:11 Litchfield Park Az
   25  701 Rebecca Newman               30   1/1    F 4:20:07  9:56 4:20:19 1:51:13 Dallas Tx
   26  820 Bob Lenegan                  32   3/4    M 4:24:00 10:05 4:24:13 2:02:10 Flagstaff Az
   27  713 Cheri Ann Pompeo             54   2/4    F 4:25:55 10:09 4:27:53 2:03:14 Woodinville Wa
   28  853 Wally McGrath                59   1/4    M 4:27:36 10:13 4:27:58 1:54:56 Peoria Az
   29  738 Carol Sweeney                51   3/4    F 4:37:21 10:35 4:37:42 2:15:17 Buckeye Az
   30 5556 Steve Boone                  57   2/4    M 4:51:36 11:08 4:51:46 2:05:42 Humble Tx
   31 5572 Michael Nerini               51   3/6    M 5:03:36 11:35 5:04:16 2:14:47 Phoenix Az
   32  759 Dave Abbott                  54   4/6    M 5:06:30 11:42 5:06:42 2:10:16 Indianapolis In
   33  611 Patrick Thomas Besselman     44   5/5    M 5:16:09 12:04 5:28:28 2:16:19 Sierra Vista Az
   34  612 Richard Besselman            47   5/5    M 5:16:09 12:04 5:28:29 2:16:19 Sierra Vista Az
   35  783 Russell Cheney               65   1/1    M 5:32:53 12:42 5:32:53 2:41:58 Scottsdale Az
   36  625 Clifton Cartwright           53   5/6    M 5:34:20 12:46 5:34:20 2:38:37 Booneville Ms
   37  686 Laurence Macon               62   2/2    M 5:41:48 13:03 5:41:48 2:38:33 San Antonio Tx
   38  700 Guy Bradley                  31   4/4    M 5:45:26 13:11 5:46:23 2:18:48 Dallas Tx
   39 5566 Hugo Loaiza                  50   6/6    M 5:46:01 13:12 5:46:09 2:45:32 Palmdale Ca
   40 5555 Paula Boone                  40   3/3    F 5:54:26 13:32 5:54:26 2:41:42 Humble Tx
   41  606 Frank Bartocci               59   3/4    M 5:54:27 13:32 5:54:27 2:41:41 Rochester Mn
   42  711 Rich Perza                   55   4/4    M 6:13:27 14:15 6:13:27 2:55:19 Ambridge Pa
   43  758 Gerald Kaphing               70   2/2    M 6:15:45 14:20 6:15:45 3:01:59 Tucson Az
   44  696 Charlene Yvonne Myers        49   1/1    F 6:19:10 14:28 6:19:10 3:02:58 Delphi In
   45  748 Ginny Turner                 54   4/4    F 6:37:18 15:10 6:37:18 3:11:38 Hillsboro Or

HALF MARATHON RUN OVERALL ORDER OF FINISH

Place No.  Name                        Age Div/Tot  S Chip    Pace  Gun     Hometown                  
    1  724 Romano Scaturro              44   1/13   M 1:16:53  5:52 1:16:58 Cornville Az
    2  722 Carlos A. Sanchez            39   1/12   M 1:24:36  6:28 1:24:40 Gallup Nm
    3  621 John Burkell                 35   2/12   M 1:25:26  6:32 1:25:30 Phoenix Az
    4  673 Michael Labrecque            29   1/3    M 1:26:46  6:38 1:26:49 Goodyear Az
    5 5550 Dean Bailey                  49   1/10   M 1:28:35  6:46 1:28:38 Peoria Az
    6 5567 Jerrod Maguire               35   3/12   M 1:33:26  7:08 1:33:30 Phoenix Az
    7  707 Paul Pannuti                 39   4/12   M 1:34:24  7:13 1:34:35 Scottsdale Az
    8  755 Palmer Wilson                44   2/13   M 1:36:09  7:21 1:36:24 Bylas Az
    9  786 Tim Perfect                  40   3/13   M 1:36:16  7:21 1:36:31 Cave Creek Az
   10  681 Jay Lewis                    42   4/13   M 1:36:48  7:23 1:42:17 Fayetteville Ar
   11  608 Patty Beckman                37   1/11   F 1:37:27  7:26 1:37:31 Paradise Valley Az
   12  631 Patrick Dolan                34   1/9    M 1:39:23  7:35 1:39:39 Phoenix Az
   13  723 Deanne Sanny                 42   1/6    F 1:39:49  7:37 1:39:52 Scarborough Me
   14 5571 Laura Nagy                   38   2/11   F 1:40:21  7:40 1:40:27 Glendale Az
   15  602 Micah Arnold                 29   2/3    M 1:40:34  7:41 1:40:53 Phoenix Az
   16  664 Lawrence Kaibetoney          47   2/10   M 1:41:47  7:46 1:42:53 Kayenta Az
   17  750 Melanie M Valerio            37   3/11   F 1:42:04  7:48 1:42:10 Scottsdale Az
   18 5574 Rosanna Roasa                54   1/2    F 1:42:04  7:48 1:42:09 Phoenix Az
   19  685 Peter Luplow                 52   1/4    M 1:42:58  7:52 1:43:28 Bellevue Wa
   20  819 Andrew Boetcher              36   5/12   M 1:44:08  7:57 1:44:14 Phoenix Az
   21  655 Jodi Ann Hamill              36   4/11   F 1:44:51  8:00 1:45:20 Goodyear Az
   22  730 John Charles Sikra           45   3/10   M 1:44:53  8:00 1:45:04 Tempe Az
   23  693 Ian Moses                    38   6/12   M 1:45:16  8:02 1:45:39 Phoenix Az
   24  717 Jose Alfredo Rodriguez       19   1/2    M 1:45:17  8:02 1:45:30 Glendale Az
   25  716 Christopher Ratchford        35   7/12   M 1:45:35  8:04 1:45:49 Midlothian Va
   26  732 Bert Smith                   58   1/2    M 1:46:03  8:06 1:46:16 Dewey Az
   27  821 Stephen Allen                41   5/13   M 1:48:04  8:15 1:48:24 Yuma Proving Groun Az
   28  688 Jeff McCoy                   45   4/10   M 1:48:13  8:16 1:50:27 Cave Creek Az
   29  637 Mark F Fink                  48   5/10   M 1:48:25  8:17 1:48:41 Surprise Az
   30  680 Gregg Andrew Lentz           30   2/9    M 1:48:35  8:17 1:49:03 Surprise Az
   31  624 Eddie Carlin                 62   1/4    M 1:48:43  8:18 1:48:49 Flagstaff Az
   32  794 Jennie Christensen           36   5/11   F 1:48:50  8:19 1:48:56 Phoenix Az
   33  679 Alison Rebecca Lentz         28   1/5    F 1:48:53  8:19 1:49:21 Surprise Az
   34 5569 Arthur Moore                 47   6/10   M 1:48:55  8:19 1:49:07 Prescott Valley Az
   35  792 Ron Aristondo                31   3/9    M 1:49:10  8:20 1:49:24 Aliso Viejo Ca
   36  793 Nick Christensen             37   8/12   M 1:49:17  8:21 1:49:24 Phoenix Az
   37  721 Mark Salazar                 44   6/13   M 1:49:39  8:22 1:50:15 Glendale Az
   38  660 Trisha L Holm                24   1/5    F 1:49:49  8:23 1:50:18 St Michael Mn
   39  702 Kevin Olin                   37   9/12   M 1:50:22  8:26 1:50:37 Mesa Az
   40  708 Don Pelly                    56   2/2    M 1:51:09  8:29 1:51:29 Harrodsburg Ky
   41  671 Robert Kolb                  45   7/10   M 1:51:46  8:32 1:52:02 Westfield Ma
   42  668 Donovan Kelly                31   4/9    M 1:52:07  8:34 1:52:37 Phoenix Az
   43  789 Kelly Vanek                  25   2/5    F 1:52:25  8:35 1:52:52 Tempe Az
   44 5554 Thomas Martin Baker          45   8/10   M 1:52:44  8:36 1:52:53 Carefree Az
   45 5582 Michael Tuohey               60   2/4    M 1:52:47  8:37 1:52:57 Clermont Fl
   46  754 Michelle A Wilkes            37   6/11   F 1:53:02  8:38 1:53:15 Westerville Oh
   47  787 Michael Isosaki              47   9/10   M 1:53:30  8:40 1:53:45 Phoenix Az
   48  856 Jason Clagg                  29   3/3    M 1:53:34  8:40 1:53:51 Ft Wayne In
   49  726 Elizabeth Searling           24   2/5    F 1:54:07  8:43 1:54:35 Phoenix Az
   50  737 Ned Stolzberg                39  10/12   M 1:54:19  8:44 1:54:34 Phoenix Az
   51  626 Bill Cassidy                 47  10/10   M 1:54:21  8:44 1:55:25 Phoenix Az
   52  642 Leah Christine Furneaux      37   7/11   F 1:54:38  8:45 1:54:51 Phoenix Az
   53  818 Scott Whisler                32   5/9    M 1:54:53  8:46 1:55:20 Caledonia Mi
   54  749 Julie Utter                  34   1/7    F 1:55:26  8:49 1:55:52 Warrenville Il
   55 5581 Ian Thomas                   53   2/4    M 1:55:47  8:50 1:55:55 Peoria Az
   56  817 Justin Gatz                  17   2/2    M 1:55:49  8:51 1:55:51 Surprise Az
   57 5583 Holly Vana                   41   2/6    F 1:56:01  8:51 1:56:13 Scottsdale Az
   58  628 Sean Clancy                  34   6/9    M 1:56:54  8:56 1:57:25 Phoenix Az
   59  634 Anne Fairall                 45   1/9    F 1:57:23  8:58 1:57:31 Tucson Az
   60  635 Brad Fairall                 53   3/4    M 1:57:24  8:58 1:57:32 Tucson Az
   61  857 Judy Ables-morin             46   2/9    F 1:58:24  9:02 1:58:35 Glendale Az
   62  751 Conrad Frederick Veen        35  11/12   M 1:59:41  9:08 2:00:13 Phoenix Az
   63  674 Kirsten Larsen               24   3/5    F 2:01:19  9:16 2:02:15 Tempe Az
   64  753 Phyllis Warren               49   3/9    F 2:03:08  9:24 2:03:15 Phoenix Az
   65  695 Mike Murphy                  41   7/13   M 2:03:24  9:25 2:07:43 Gilbert Az
   66  657 Diane Hein-beutel            44   3/6    F 2:04:31  9:30 2:04:58 Doniphan Ne
   67  630 Paul Daly                    50   4/4    M 2:05:41  9:36 2:07:07 Glendale Az
   68  788 Susan Saunders               55   1/5    F 2:05:43  9:36 2:05:47 Wickenburg Az
   69  699 Stuart Nelson                66   1/3    M 2:08:48  9:50 2:09:04 Sun City Az
   70  651 Mary Greer                   48   4/9    F 2:08:50  9:50 2:09:28 Goodyear Az
   71 5558 Nita Bower                   62   1/1    F 2:09:31  9:53 2:09:42 Mesa Az
   72  862 Gilbert Crutcher             42   8/13   M 2:09:42  9:54 2:10:08 Glendale Az
   73 5579 Chris St. James              33   7/9    M 2:09:46  9:54 2:10:12 Glendale Az
   74  684 Jeanne Luplow                56   2/5    F 2:09:54  9:55 2:10:24 Bellevue Wa
   75  858 Courtney Mullins             34   8/9    M 2:10:55 10:00 2:11:02 Avondale Az
   76 5573 Adelio Percic                69   2/3    M 2:12:31 10:07 2:12:51 Phoenix Az
   77  619 Diana Lee Brooks             53   2/2    F 2:14:52 10:18 2:15:17 Phoenix Az
   78  670 Sharon Lynn Kobashigawa      43   4/6    F 2:14:59 10:18 2:15:25 Peoria Az
   79  656 Lorraine Haskin              57   3/5    F 2:15:06 10:19 2:15:29 Phoenix Az
   80  739 Walt Sweeney                 68   3/3    M 2:15:46 10:22 2:16:08 Buckeye Az
   81  861 James Parker                 41   9/13   M 2:16:24 10:25 2:17:14 Flagstaff Az
   82  803 Slade Carlton                35  12/12   M 2:18:03 10:32 2:21:10 Phoenix Az
   83  648 Stefanie Ann Goldman         20   4/5    F 2:18:48 10:36 2:19:09 Tucson Az
   84  745 Wesley P Thurner             23   1/2    M 2:20:27 10:43 2:20:44 Surprise Az
   85  822 Justin Wallen                30   9/9    M 2:21:27 10:48 2:21:47 Buckeye Az
   86  785 Christie Anaya               37   8/11   F 2:24:53 11:04 2:24:53 Glendale Az
   87  784 Janene Burnham               32   2/7    F 2:24:53 11:04 2:24:53 Phoenix Az
   88  710 Amy Peplinski                34   3/7    F 2:24:58 11:04 2:25:37 Oak Harbor Wa
   89 5576 Mark Robeson                 40  10/13   M 2:25:07 11:05 2:25:28 Peoria Az
   90 5575 Alicia Robeson               37   9/11   F 2:25:07 11:05 2:25:28 Glendale Az
   91  733 Jerry G. Sombke              70   1/2    M 2:25:40 11:07 2:26:04 Apache Junction Az
   92  791 Michele Valimont             37  10/11   F 2:27:59 11:18 2:28:18 Phoenix Az
   93 5548 Cindi Allrich                34   4/7    F 2:30:27 11:29 2:30:47 Scottsdale Az
   94  855 Sheila Reed                  47   5/9    F 2:31:06 11:32 2:31:41 Phoenix Az
   95  742 Edward Paul Thomas           43  11/13   M 2:32:32 11:39 2:32:50 Brooklyn Ny
   96  705 Corrie Beth Panganiban       20   5/5    F 2:32:43 11:39 2:37:02 Phoenix Az
   97  744 Tabitha Thornhill            37  11/11   F 2:33:52 11:45 2:34:11 Tucson Az
   98  643 Giridar Gajapathy            40  12/13   M 2:34:35 11:48 2:40:05 Tempe Az
   99  647 Lori Renee Goldman           49   6/9    F 2:37:44 12:02 2:38:06 Tucson Az
  100 5568 Marty Michelson              60   3/4    M 2:37:47 12:03 2:38:22 Gilbert Az
  101  802 Eric Manfull                 42  13/13   M 2:38:09 12:04 2:38:41 Phoenix Az
  102  607 Candice Alexandra Beaith     15   1/2    F 2:39:03 12:08 2:39:22 Scottsdale Az
  103  620 Chris Bruyn                  27   3/5    F 2:46:24 12:42 2:46:42 Chandler Az
  104  731 Aimee Leigh Sitzler          25   4/5    F 2:46:25 12:42 2:46:43 Mesa Az
  105  712 Robyn Lynn Peterson-sobecki  31   5/7    F 2:53:39 13:15 2:54:08 Buckeye Az
  106  645 Dacoda E. Golden             11   2/2    F 3:04:19 14:04 3:04:47 Glendale Az
  107  646 Rhonda Renee' Golden         40   5/6    F 3:04:19 14:04 3:04:47 Glendale Az
  108  690 Laura Lynn McDonagh          42   6/6    F 3:09:37 14:28 3:10:26 Boise Id
  109  689 Diana Lynne McDonagh         49   7/9    F 3:09:37 14:28 3:10:27 Eagle Id
  110  659 Roxanne M Holm               26   5/5    F 3:11:12 14:36 3:11:41 St Michael Mn
  111  652 Leanne Gushura               30   6/7    F 3:13:33 14:46 3:14:04 Phoenix Az
  112  653 Michael Gushura              63   4/4    M 3:13:33 14:46 3:14:05 Phoenix Az
  113  658 Deborah L Holm               47   8/9    F 3:22:58 15:29 3:23:27 St Michael Mn
  114 5585 Nathaniel J. West            20   2/2    M 3:32:37 16:14 3:32:54 Tucson Az
  115  735 Diane Stein                  47   9/9    F 3:34:14 16:21 3:34:47 Peoria Az
  116  623 Gail Caretto                 56   4/5    F 3:34:15 16:21 3:34:48 Glendale Az
  117  706 Rey Panganiban               70   2/2    M 3:49:51 17:32 3:50:07 Scottsdale Az
  118  641 Gail Fruhling                58   5/5    F 4:36:37 21:07 4:37:05 Kingman Az
  119  640 Abi Fruhling                 30   7/7    F 4:36:38 21:07 4:37:05 Kingman Az

TWO MILE FUN RUN OVERALL ORDER OF FINISH

Place No.  Name                        Age Sex/Tot  S Chip    Pace  Gun     Hometown                  
    1  863 Adam Hunt                    32   1/5    M   11:37  5:49   11:38 Phoenix Az
    2  859 Bridget Taddonio             19   1/6    F   16:46  8:23   16:47 Scottsdale Az
    3  677 James M Laverie              28   2/5    M   17:08  8:34   17:10 Chandler Az
    4  860 John Taddonio                53   3/5    M   17:27  8:44   17:27 Scottsdale Az
    5  676 Holly M Laverie              27   2/6    F   18:36  9:18   18:38 Chandler Az
    6  824 Gary Jones                   31   4/5    M   19:30  9:45   19:32
    7  852 Roni Gustine                 41   3/6    F   20:37 10:19   20:38 Gallup Nm
    8  639 Craig J Frooninckx           36   5/5    M   22:04 11:02   22:11 Glendale Az
    9  609 Michelle Benham              32   4/6    F   24:12 12:06   24:14 Surprise Az
   10  691 Meghan McDonagh              38   5/6    F   32:45 16:23   23:32 Boise Id
   11  801 Donna Kaphing                69   6/6    F   33:05 16:33   33:08

RELAY RESULTS
Beer Nutz
Male 40 To 44
2:58:03
Roy Weinberg        34:44
Michael Tharp       34:07
Paul Gulick         33:25
William Rowell      35:17
Charlie Benson      40:10

Hot Tamales
Coed, 30 To 39
2:58:19
Karla Averill       35:16
Annie Stokes        37:25
Maria Baker         33:22
Sandra Fontaine     33:00
Lee Baker           38:55

Hos Before Bros
Coed, 20 To 29
3:19:19
Rachel Smith        33:14
Margaret Smith      38:58
Jeffrey Stelter     35:07
Jermaine Martinez   47:05
Daniel Scarberry    44:34

5𘂩8抯
Coed, 10 To 19
3:30:15
Diane Bailey        50:19
Caroline Lefebure   41:07
Dean Bailey         36:14
Allen Larucci       40:45
Robert Huotari      41:10

Oldies But Goodies
Male, 60 To 69
3:58:55
Hal Gensler         38:10
Ronnie Bosman       52:31
Jack Frandsen       59:46
Larry Wright        41:32
Chuck Cammack       46:27

AZTech Racewalker
Female, 50 To 59
4:51:43
Diane Brandt        52:24
Vicki Pritchard   1:01:00
Ellie Kallal        55:28
Susan Lichtsinn     57:18
Kathleen Balser   1:04:57